M I D A S
Marine Information and Data Acquisition System
Tripno 1818 of the Zeeleeuw from 2009-09-29 06:51:08 to 2009-09-29 16:20:53
Back to CruiseResearch ActivitiesStationsMapUnderway DataData graphs

EquipmentUnitsComment
TimeDGPSUTC
LatitudeDGPSDM.mWGS84
LongitudeDGPSDM.mWGS84
HeadingGyrodeg 
SOGDGPSknotsSpeed over ground
COGDGPSdegCourse over ground
DepthEcho soundermeters200 kHz
Missing or incorrect values are displayed as -999
Navigation data collected by the RV Zeeleeuw from 2009-09-29 07:01:30 to 2009-09-29 16:25:40
Time Latitude Longitude Heading SOG COG Depth
2009-09-29 07:02:38 51°13.675 2°55.913 114.3 2.7 295 -999
2009-09-29 07:03:38 51°13.692 2°55.838 103.9 3 285 -999
2009-09-29 07:04:38 51°13.699 2°55.777 89.8 0.7 291 13.9
2009-09-29 07:05:36 51°13.705 2°55.789 40.8 0.7 213 13.8
2009-09-29 07:06:38 51°13.706 2°55.785 18 2.2 11 4.6
2009-09-29 07:07:36 51°13.714 2°55.79 340.6 1.3 339 13.5
2009-09-29 07:08:35 51°13.748 2°55.736 309.3 3.8 310 12.6
2009-09-29 07:09:35 51°13.806 2°55.658 330.4 5.1 330 12.6
2009-09-29 07:10:35 51°13.887 2°55.593 335.7 5.5 335 12.8
2009-09-29 07:11:35 51°13.972 2°55.53 335.6 5.7 335 12.8
2009-09-29 07:12:35 51°14.059 2°55.468 335.8 5.7 335 12.3
2009-09-29 07:13:35 51°14.142 2°55.4 330.5 5.7 330 12.2
2009-09-29 07:14:34 51°14.23 2°55.293 318.8 7.3 317 12.8
2009-09-29 07:15:34 51°14.316 2°55.146 314 7.9 312 12.5
2009-09-29 07:16:34 51°14.423 2°55.008 328.2 8.6 331 11.7
2009-09-29 07:17:34 51°14.558 2°54.891 330.1 9.7 331 11.2
2009-09-29 07:18:34 51°14.705 2°54.759 331.1 10.5 332 11.4
2009-09-29 07:19:34 51°14.864 2°54.624 330.8 10.9 332 11.3
2009-09-29 07:20:35 51°15.023 2°54.481 330.3 10.9 330 12
2009-09-29 07:21:34 51°15.178 2°54.343 330.9 10.9 331 10.5
2009-09-29 07:22:34 51°15.335 2°54.202 329.3 10.7 330 10.8
2009-09-29 07:23:34 51°15.49 2°54.064 330.7 10.7 331 11.7
2009-09-29 07:24:35 51°15.648 2°53.922 331.1 10.6 330 12.4
2009-09-29 07:25:34 51°15.801 2°53.785 330.7 10.8 331 12.8
2009-09-29 07:26:35 51°15.958 2°53.641 330.6 10.6 330 13.4
2009-09-29 07:27:34 51°16.109 2°53.504 329.9 10.6 330 12.9
2009-09-29 07:28:34 51°16.263 2°53.363 330.3 10.8 331 13.2
2009-09-29 07:29:35 51°16.424 2°53.225 332.7 10.8 335 13.3
2009-09-29 07:30:34 51°16.583 2°53.112 336 10.6 336 13
2009-09-29 07:31:34 51°16.743 2°52.997 336.1 10.6 336 12.2
2009-09-29 07:32:34 51°16.899 2°52.866 331 10.5 331 10.8
2009-09-29 07:33:35 51°17.053 2°52.719 327.4 10.7 328 11.7
2009-09-29 07:34:34 51°17.2 2°52.582 338.4 10.4 339 11.3
2009-09-29 07:35:35 51°17.376 2°52.526 354.1 10.6 356 11.6
2009-09-29 07:36:34 51°17.55 2°52.533 2.6 10.8 3 12.2
2009-09-29 07:37:35 51°17.734 2°52.546 1.5 10.8 1 12.1
2009-09-29 07:38:35 51°17.915 2°52.555 0.7 10.6 2 12.3
2009-09-29 07:39:34 51°18.09 2°52.561 0.6 10.6 1 12.4
2009-09-29 07:40:35 51°18.27 2°52.567 359.9 10.8 -999 12.9
2009-09-29 07:41:34 51°18.447 2°52.573 1.4 10.9 -999 12.6
2009-09-29 07:42:35 51°18.631 2°52.578 0.6 10.8 1 13.5
2009-09-29 07:43:34 51°18.806 2°52.583 0.1 10.4 2 13.8
2009-09-29 07:44:34 51°18.982 2°52.588 0.1 10.8 1 14.2
2009-09-29 07:45:35 51°19.166 2°52.595 0.4 11 2 14.9
2009-09-29 07:46:35 51°19.347 2°52.6 0.7 10.9 1 15.8
2009-09-29 07:47:35 51°19.53 2°52.602 359.9 11 -999 16.9
2009-09-29 07:48:34 51°19.708 2°52.618 3.7 11 5 17
2009-09-29 07:49:35 51°19.891 2°52.641 3.6 10.8 5 17.7
2009-09-29 07:50:34 51°20.069 2°52.664 3.7 10.9 4 17.4
2009-09-29 07:51:35 51°20.254 2°52.685 3 10.8 4 18.2
2009-09-29 07:52:34 51°20.431 2°52.707 3.8 10.9 5 18
2009-09-29 07:53:35 51°20.619 2°52.731 4.2 11.1 6 18
2009-09-29 07:54:35 51°20.798 2°52.754 3.1 10.4 5 16.7
2009-09-29 07:55:34 51°20.974 2°52.776 3.6 11 4 16
2009-09-29 07:56:34 51°21.156 2°52.808 6.9 11 8 17.4
2009-09-29 07:57:34 51°21.336 2°52.847 6.4 10.9 7 18.6
2009-09-29 07:58:35 51°21.517 2°52.888 7 10.9 8 19
2009-09-29 07:59:34 51°21.697 2°52.931 7.4 11.3 9 20.3
2009-09-29 08:00:35 51°21.881 2°52.98 7.6 11 10 21.7
2009-09-29 08:01:34 51°22.062 2°53.026 7.3 10.9 9 23.3
2009-09-29 08:02:34 51°22.242 2°53.073 6.5 11.3 8 24.2
2009-09-29 08:03:34 51°22.421 2°53.118 7.6 11 10 25.3
2009-09-29 08:04:34 51°22.602 2°53.165 7.3 11.2 9 24.2
2009-09-29 08:05:34 51°22.785 2°53.209 7.4 11.1 9 24.1
2009-09-29 08:06:34 51°22.968 2°53.252 7.1 11.1 9 23.4
2009-09-29 08:07:35 51°23.151 2°53.299 7.5 11.2 8 20.6
2009-09-29 08:08:34 51°23.331 2°53.344 7.3 11 10 21.3
2009-09-29 08:09:34 51°23.513 2°53.391 7.9 11.2 9 22.4
2009-09-29 08:10:35 51°23.701 2°53.44 7.6 11.2 8 22.6
2009-09-29 08:11:34 51°23.886 2°53.488 7.5 11.4 9 22.2
2009-09-29 08:12:36 51°24.073 2°53.536 7.1 10.3 8 -999
2009-09-29 08:13:34 51°24.247 2°53.579 7.4 11.1 9 19.5
2009-09-29 08:14:35 51°24.431 2°53.626 6.8 11 9 17.9
2009-09-29 08:15:34 51°24.611 2°53.67 7.6 11.1 9 17.9
2009-09-29 08:16:35 51°24.797 2°53.715 5.9 11.1 9 19.8
2009-09-29 08:17:34 51°24.976 2°53.761 8 11.2 12 22.7
2009-09-29 08:18:35 51°25.16 2°53.81 7.3 11 10 22
2009-09-29 08:19:36 51°25.342 2°53.853 8.6 10.4 9 -999
2009-09-29 08:20:34 51°25.512 2°53.897 7.7 10.6 9 22.2
2009-09-29 08:21:34 51°25.691 2°53.935 3 10.6 5 23.7
2009-09-29 08:22:34 51°25.869 2°53.955 1.6 10.8 3 24.9
2009-09-29 08:23:35 51°26.054 2°53.969 2.3 10.9 3 26.7
2009-09-29 08:24:34 51°26.237 2°53.987 2.4 11.1 3 29.7
2009-09-29 08:25:35 51°26.424 2°54.003 2.3 11.1 3 32.8
2009-09-29 08:26:35 51°26.607 2°54.022 3.4 11.1 6 33
2009-09-29 08:27:34 51°26.784 2°54.04 1.8 11.1 3 30.7
2009-09-29 08:28:35 51°26.97 2°54.063 2.2 11 5 24.8
2009-09-29 08:29:34 51°27.154 2°54.085 0.8 11.3 3 25.1
2009-09-29 08:30:34 51°27.341 2°54.108 1.8 11.5 4 25.1
2009-09-29 08:31:34 51°27.528 2°54.128 2 11.1 2 27.2
2009-09-29 08:32:35 51°27.716 2°54.147 1.6 11 2 23.8
2009-09-29 08:33:35 51°27.895 2°54.167 2.8 10.7 5 22.6
2009-09-29 08:34:35 51°28.077 2°54.184 2.7 11.2 1 21.4
2009-09-29 08:35:35 51°28.262 2°54.2 2.3 11.2 4 23.1
2009-09-29 08:36:34 51°28.44 2°54.218 2.1 10.8 2 24
2009-09-29 08:37:35 51°28.624 2°54.236 2.4 11 2 24.9
2009-09-29 08:38:34 51°28.805 2°54.255 2.3 11 4 26.3
2009-09-29 08:39:35 51°28.994 2°54.271 2.3 11.1 3 27.3
2009-09-29 08:40:35 51°29.179 2°54.291 2.9 11.1 5 28.7
2009-09-29 08:41:34 51°29.359 2°54.309 1.8 10.9 5 30.5
2009-09-29 08:42:35 51°29.546 2°54.331 2.4 11.3 5 30.6
2009-09-29 08:43:35 51°29.728 2°54.357 1.9 11 6 32.2
2009-09-29 08:44:35 51°29.914 2°54.381 2.4 11.1 5 33.8
2009-09-29 08:45:35 51°30.098 2°54.408 2.3 11 5 32
2009-09-29 08:46:35 51°30.284 2°54.432 2.4 11.3 5 34.2
2009-09-29 08:47:34 51°30.47 2°54.459 1.8 11.5 2 35.6
2009-09-29 08:48:35 51°30.662 2°54.486 1.4 11.4 7 32.1
2009-09-29 08:49:34 51°30.848 2°54.516 3 11.6 8 19.1
2009-09-29 08:50:35 51°31.038 2°54.538 2.2 11.2 4 20.7
2009-09-29 08:51:35 51°31.223 2°54.561 2 11 4 21.1
2009-09-29 08:52:35 51°31.407 2°54.582 1.8 11.3 5 18.6
2009-09-29 08:53:35 51°31.594 2°54.603 2.1 11.3 3 20.5
2009-09-29 08:54:35 51°31.779 2°54.625 2.7 11.2 6 22.7
2009-09-29 08:55:35 51°31.964 2°54.647 3 11.3 4 23.3
2009-09-29 08:56:35 51°32.148 2°54.657 359.6 11.2 -999 22.5
2009-09-29 08:57:35 51°32.336 2°54.663 359.6 11.3 359 23.7
2009-09-29 08:58:35 51°32.52 2°54.673 359.9 11 3 23.7
2009-09-29 08:59:35 51°32.706 2°54.684 0.1 11.1 3 23.9
2009-09-29 09:00:35 51°32.895 2°54.689 359.4 11.4 1 24.4
2009-09-29 09:01:35 51°33.079 2°54.696 0.3 11.2 1 26.1
2009-09-29 09:02:35 51°33.256 2°54.745 17.8 9 21 26.4
2009-09-29 09:03:35 51°33.344 2°54.844 38.6 5.3 41 26.1
2009-09-29 09:04:35 51°33.397 2°54.922 36.8 3.8 44 28.3
2009-09-29 09:05:35 51°33.437 2°54.987 41.2 3.2 45 27.1
2009-09-29 09:06:35 51°33.467 2°55.043 40.9 2.6 56 26.6
2009-09-29 09:07:35 51°33.489 2°55.092 44.4 2.2 51 28.3
2009-09-29 09:08:35 51°33.511 2°55.141 42.1 2.2 54 27.5
2009-09-29 09:09:35 51°33.532 2°55.189 38 2.2 52 29.3
2009-09-29 09:10:35 51°33.555 2°55.236 41.9 2.5 53 26.3
2009-09-29 09:11:35 51°33.58 2°55.288 43.5 2.5 55 29.1
2009-09-29 09:12:35 51°33.599 2°55.332 36.4 1.6 55 29.8
2009-09-29 09:13:35 51°33.613 2°55.366 28.1 1.5 57 27.6
2009-09-29 09:14:35 51°33.625 2°55.4 26.8 1.3 58 29
2009-09-29 09:15:35 51°33.631 2°55.43 27 1.2 78 28.3
2009-09-29 09:16:35 51°33.633 2°55.46 33.7 1.2 85 28.5
2009-09-29 09:17:35 51°33.636 2°55.488 39.3 1.1 80 28.4
2009-09-29 09:18:35 51°33.638 2°55.515 47.3 1 81 29
2009-09-29 09:19:35 51°33.639 2°55.541 50.2 0.9 79 29.1
2009-09-29 09:20:35 51°33.641 2°55.567 51.2 0.9 91 28.7
2009-09-29 09:21:35 51°33.641 2°55.594 54.9 1 92 27.5
2009-09-29 09:22:35 51°33.643 2°55.62 54.7 1 79 27.6
2009-09-29 09:23:35 51°33.645 2°55.646 54.5 0.9 83 27.9
2009-09-29 09:24:35 51°33.645 2°55.67 51.6 1.1 96 28.6
2009-09-29 09:25:35 51°33.646 2°55.695 48 0.9 85 28.9
2009-09-29 09:26:35 51°33.648 2°55.722 45.1 0.8 88 29.5
2009-09-29 09:27:35 51°33.65 2°55.748 43.6 0.9 80 29.1
2009-09-29 09:28:35 51°33.651 2°55.775 44.6 1.1 85 29.5
2009-09-29 09:29:35 51°33.651 2°55.8 46.7 0.8 90 29.9
2009-09-29 09:30:35 51°33.651 2°55.824 47.6 0.8 74 29.3
2009-09-29 09:31:35 51°33.652 2°55.85 49.4 1 85 29.6
2009-09-29 09:32:35 51°33.654 2°55.876 45.8 0.8 78 28.1
2009-09-29 09:33:35 51°33.655 2°55.902 46 1.1 86 28.1
2009-09-29 09:34:35 51°33.656 2°55.926 44.4 0.9 78 27.9
2009-09-29 09:35:35 51°33.658 2°55.953 43.5 1.2 83 27.6
2009-09-29 09:36:35 51°33.661 2°55.981 42.9 0.9 84 27.7
2009-09-29 09:37:35 51°33.663 2°56.009 42.6 1 81 27.1
2009-09-29 09:38:35 51°33.666 2°56.036 45.8 1.1 84 29.3
2009-09-29 09:39:35 51°33.669 2°56.063 45.2 0.9 68 29.5
2009-09-29 09:40:35 51°33.672 2°56.091 40.5 1.2 77 28.9
2009-09-29 09:41:35 51°33.677 2°56.122 35.9 1.3 76 28.6
2009-09-29 09:42:35 51°33.682 2°56.152 33.5 1.2 74 29
2009-09-29 09:43:35 51°33.683 2°56.178 38 0.8 85 29.4
2009-09-29 09:44:35 51°33.683 2°56.204 47.3 0.8 81 29.5
2009-09-29 09:45:35 51°33.684 2°56.229 53.7 0.8 98 30.4
2009-09-29 09:46:34 51°33.687 2°56.256 54.3 1 72 29.1
2009-09-29 09:47:35 51°33.692 2°56.286 47.1 1.2 79 30.2
2009-09-29 09:48:35 51°33.696 2°56.313 38.6 0.9 80 30
2009-09-29 09:49:35 51°33.699 2°56.34 36.4 1 79 30.2
2009-09-29 09:50:35 51°33.701 2°56.368 37.1 1 84 29.5
2009-09-29 09:51:35 51°33.703 2°56.396 40.5 1.1 89 28.1
2009-09-29 09:52:35 51°33.705 2°56.423 45.1 1.1 79 29.5
2009-09-29 09:53:35 51°33.708 2°56.45 46 0.9 76 29.7
2009-09-29 09:54:35 51°33.709 2°56.476 48.6 1.1 87 30.4
2009-09-29 09:55:35 51°33.713 2°56.502 47.3 0.9 82 30.6
2009-09-29 09:56:35 51°33.715 2°56.529 45.6 1 78 30.6
2009-09-29 09:57:35 51°33.719 2°56.558 42.9 1.1 81 30.5
2009-09-29 09:58:35 51°33.723 2°56.586 41.3 1.3 84 29.9
2009-09-29 09:59:35 51°33.726 2°56.613 39.6 1.1 82 30.6
2009-09-29 10:00:35 51°33.729 2°56.64 40.5 1 81 29.4
2009-09-29 10:01:35 51°33.732 2°56.666 42.7 0.9 73 27.6
2009-09-29 10:02:35 51°33.735 2°56.693 43.3 1.3 80 27.7
2009-09-29 10:03:35 51°33.74 2°56.72 44 1.1 75 28.9
2009-09-29 10:04:35 51°33.744 2°56.749 44.3 1.2 79 28
2009-09-29 10:05:35 51°33.747 2°56.775 43.6 1 82 28.1
2009-09-29 10:06:35 51°33.751 2°56.802 43.6 1 79 28.6
2009-09-29 10:07:35 51°33.755 2°56.829 43.3 1.3 75 28.9
2009-09-29 10:08:35 51°33.76 2°56.858 41.8 1.2 81 29.9
2009-09-29 10:09:35 51°33.766 2°56.886 42.9 1 66 29.9
2009-09-29 10:10:35 51°33.78 2°56.928 50 2.9 56 29.7
2009-09-29 10:11:35 51°33.803 2°57.033 93.1 4.7 85 29.9
2009-09-29 10:12:35 51°33.774 2°57.139 150.3 4.1 140 28.6
2009-09-29 10:13:35 51°33.715 2°57.155 203.2 3.5 195 29.1
2009-09-29 10:14:35 51°33.673 2°57.108 229.8 2.9 230 29
2009-09-29 10:15:35 51°33.645 2°57.053 237.8 2.6 241 27.6
2009-09-29 10:16:35 51°33.62 2°57 227.7 2.6 218 27.8
2009-09-29 10:17:35 51°33.592 2°56.95 237.8 2.5 243 25.9
2009-09-29 10:18:35 51°33.567 2°56.895 230.9 3 225 27.9
2009-09-29 10:19:35 51°33.535 2°56.832 243 3.1 248 27.7
2009-09-29 10:20:35 51°33.516 2°56.749 246.1 3.5 247 27.5
2009-09-29 10:21:35 51°33.486 2°56.672 237.4 3.4 233 26.6
2009-09-29 10:22:35 51°33.462 2°56.59 248.3 3.4 253 28.3
2009-09-29 10:23:35 51°33.438 2°56.506 235.3 3.5 238 28.3
2009-09-29 10:24:35 51°33.404 2°56.43 241.6 3.5 238 28.1
2009-09-29 10:25:35 51°33.386 2°56.343 252.7 3.4 252 26.5
2009-09-29 10:26:35 51°33.36 2°56.261 232.7 3.5 234 27.5
2009-09-29 10:27:35 51°33.338 2°56.193 249 1.8 259 27.9
2009-09-29 10:28:35 51°33.334 2°56.171 251.2 0.4 292 28.5
2009-09-29 10:29:35 51°33.335 2°56.174 248.1 0.4 66 28
2009-09-29 10:30:35 51°33.336 2°56.196 230.8 1 82 28.1
2009-09-29 10:31:35 51°33.341 2°56.228 212.5 1.3 71 26
2009-09-29 10:32:35 51°33.347 2°56.26 195.2 1.4 73 28.1
2009-09-29 10:33:35 51°33.354 2°56.292 190.6 1.3 70 27.5
2009-09-29 10:34:35 51°33.361 2°56.323 190 1.2 67 27.6
2009-09-29 10:35:35 51°33.369 2°56.355 192 1.3 64 25.5
2009-09-29 10:36:35 51°33.377 2°56.386 192.4 1.2 70 26.6
2009-09-29 10:37:35 51°33.384 2°56.416 197.5 1.1 71 26.7
2009-09-29 10:38:35 51°33.391 2°56.445 200.7 1.2 72 26.6
2009-09-29 10:39:35 51°33.396 2°56.474 204.5 1.1 75 26.9
2009-09-29 10:40:35 51°33.402 2°56.502 206.8 1 69 27.1
2009-09-29 10:41:35 51°33.408 2°56.532 209.6 1.2 73 27.1
2009-09-29 10:42:35 51°33.415 2°56.563 206.9 1.2 72 27.5
2009-09-29 10:43:35 51°33.421 2°56.591 204.1 1 74 26.8
2009-09-29 10:44:35 51°33.427 2°56.62 204.5 1.1 76 27.7
2009-09-29 10:45:35 51°33.433 2°56.651 201 1.4 76 29
2009-09-29 10:46:35 51°33.44 2°56.679 203.9 1.1 69 27.9
2009-09-29 10:47:35 51°33.447 2°56.707 204.7 1.2 72 27.9
2009-09-29 10:48:35 51°33.453 2°56.735 206.2 1.1 63 27.7
2009-09-29 10:49:35 51°33.46 2°56.764 202.6 1 60 25.3
2009-09-29 10:50:35 51°33.466 2°56.791 203.3 1.1 68 27.5
2009-09-29 10:51:35 51°33.473 2°56.819 202.9 1.1 72 27.8
2009-09-29 10:52:35 51°33.48 2°56.847 201.5 0.9 57 27.7
2009-09-29 10:53:35 51°33.488 2°56.874 197.9 1 63 28.2
2009-09-29 10:54:35 51°33.495 2°56.902 197.6 1 72 28.3
2009-09-29 10:55:35 51°33.5 2°56.93 200.5 0.9 73 28.2
2009-09-29 10:56:35 51°33.506 2°56.956 204.6 1.1 68 28.1
2009-09-29 10:57:35 51°33.513 2°56.983 206.4 1.1 78 27.5
2009-09-29 10:58:35 51°33.517 2°57.007 210.1 0.9 72 25.8
2009-09-29 10:59:35 51°33.521 2°57.031 212.7 1 80 23.3
2009-09-29 11:00:34 51°33.526 2°57.055 211.6 1 69 24.4
2009-09-29 11:01:34 51°33.531 2°57.08 210.9 0.9 72 25
2009-09-29 11:02:34 51°33.536 2°57.105 208.8 1.1 78 27.1
2009-09-29 11:03:34 51°33.54 2°57.131 207.9 1 83 26.5
2009-09-29 11:04:34 51°33.544 2°57.156 209.6 1 68 27.1
2009-09-29 11:05:35 51°33.548 2°57.18 209.9 0.7 91 26.3
2009-09-29 11:06:34 51°33.549 2°57.201 214.2 0.9 78 27
2009-09-29 11:07:35 51°33.554 2°57.226 209.5 1.1 70 26.9
2009-09-29 11:08:35 51°33.56 2°57.253 201.9 1.2 72 26.1
2009-09-29 11:09:35 51°33.566 2°57.28 200.5 1.1 68 24.2
2009-09-29 11:10:35 51°33.572 2°57.307 200.9 1.1 69 24.5
2009-09-29 11:11:35 51°33.578 2°57.333 203.3 1 70 25.3
2009-09-29 11:12:35 51°33.583 2°57.359 204 0.9 73 25.7
2009-09-29 11:13:35 51°33.587 2°57.385 205.8 0.8 78 26
2009-09-29 11:14:35 51°33.589 2°57.407 210.9 0.7 75 26.3
2009-09-29 11:15:35 51°33.593 2°57.43 212 1 81 27.4
2009-09-29 11:16:35 51°33.583 2°57.435 220 2.7 211 27.3
2009-09-29 11:17:35 51°33.549 2°57.316 255.7 6.6 258 23.2
2009-09-29 11:18:35 51°33.493 2°57.147 235.3 7.5 240 25.1
2009-09-29 11:19:35 51°33.454 2°56.953 250.4 7.8 252 27.8
2009-09-29 11:20:35 51°33.405 2°56.76 244.1 7.8 245 27.8
2009-09-29 11:21:35 51°33.338 2°56.585 234.8 7.7 236 27.7
2009-09-29 11:22:35 51°33.274 2°56.409 234 7.6 236 25.8
2009-09-29 11:23:35 51°33.226 2°56.339 209 1.5 190 28.1
2009-09-29 11:24:35 51°33.221 2°56.355 186.1 0.8 85 27.5
2009-09-29 11:25:35 51°33.222 2°56.378 179.8 0.8 81 28
2009-09-29 11:26:35 51°33.225 2°56.402 189.4 0.8 83 27.8
2009-09-29 11:27:35 51°33.229 2°56.425 200.4 1 75 27.5
2009-09-29 11:28:35 51°33.233 2°56.448 205.9 1.1 81 27
2009-09-29 11:29:35 51°33.238 2°56.472 209 1.1 78 26.5
2009-09-29 11:30:35 51°33.244 2°56.498 202.9 1 68 25.5
2009-09-29 11:31:35 51°33.251 2°56.526 194.1 1.2 63 26.2
2009-09-29 11:32:35 51°33.257 2°56.553 187.4 1 68 26.3
2009-09-29 11:33:35 51°33.263 2°56.581 183.5 1.1 74 27
2009-09-29 11:34:35 51°33.267 2°56.609 181.7 1 75 26.9
2009-09-29 11:35:35 51°33.271 2°56.634 188.9 0.8 81 26.8
2009-09-29 11:36:35 51°33.274 2°56.659 197.9 1 70 27.1
2009-09-29 11:37:35 51°33.281 2°56.685 203.3 1.1 71 26.7
2009-09-29 11:38:35 51°33.287 2°56.714 199 1 64 27
2009-09-29 11:39:35 51°33.295 2°56.741 197.4 1.1 68 25.9
2009-09-29 11:40:35 51°33.301 2°56.765 201.9 1 79 24.3
2009-09-29 11:41:35 51°33.307 2°56.792 203.3 1.1 68 24.2
2009-09-29 11:42:35 51°33.314 2°56.817 204.2 1.1 74 25.6
2009-09-29 11:43:35 51°33.32 2°56.842 203.5 1.1 72 25.5
2009-09-29 11:44:35 51°33.326 2°56.868 198.2 1 68 25.9
2009-09-29 11:45:35 51°33.332 2°56.895 192.9 1.1 70 26.3
2009-09-29 11:46:35 51°33.339 2°56.921 191.3 1.1 70 26.9
2009-09-29 11:47:35 51°33.345 2°56.948 190.9 1 71 26.9
2009-09-29 11:48:35 51°33.351 2°56.973 191.9 1.1 65 26
2009-09-29 11:49:35 51°33.358 2°56.999 191.2 1.1 62 26.9
2009-09-29 11:50:35 51°33.366 2°57.026 183.7 1 59 27.1
2009-09-29 11:51:35 51°33.374 2°57.051 182.9 0.9 73 26.7
2009-09-29 11:52:35 51°33.38 2°57.073 185.9 0.8 72 26.5
2009-09-29 11:53:35 51°33.385 2°57.097 189.9 0.9 69 26.5
2009-09-29 11:54:35 51°33.391 2°57.12 189.8 0.8 75 25.6
2009-09-29 11:55:35 51°33.396 2°57.141 196.2 1 69 26.5
2009-09-29 11:56:35 51°33.402 2°57.162 201.4 0.9 71 26.2
2009-09-29 11:57:35 51°33.409 2°57.184 202.2 0.8 64 26.3
2009-09-29 11:58:35 51°33.415 2°57.205 202.8 0.9 79 25.7
2009-09-29 11:59:35 51°33.421 2°57.227 201.9 0.9 59 25.3
2009-09-29 12:00:35 51°33.426 2°57.248 202.6 0.8 76 25
2009-09-29 12:01:35 51°33.431 2°57.27 202.5 0.9 70 22.8
2009-09-29 12:02:35 51°33.433 2°57.29 205.9 0.9 75 23.2
2009-09-29 12:03:35 51°33.437 2°57.31 205.2 0.7 72 24.9
2009-09-29 12:04:35 51°33.441 2°57.33 206.8 0.9 75 25.7
2009-09-29 12:05:35 51°33.446 2°57.351 202.2 0.9 62 26.2
2009-09-29 12:06:35 51°33.45 2°57.375 195.8 0.9 67 25.7
2009-09-29 12:07:35 51°33.453 2°57.396 194.1 0.6 115 25.5
2009-09-29 12:08:35 51°33.426 2°57.365 237.8 3.8 240 25.6
2009-09-29 12:09:35 51°33.403 2°57.2 256.5 8.2 261 26.2
2009-09-29 12:10:35 51°33.381 2°56.968 256.1 8.9 260 26.5
2009-09-29 12:11:35 51°33.313 2°56.768 236.4 8.5 238 24.7
2009-09-29 12:12:35 51°33.26 2°56.681 214.1 2.2 212 26.2
2009-09-29 12:13:35 51°33.25 2°56.685 214.8 0.7 88 26.5
2009-09-29 12:14:35 51°33.252 2°56.704 206.4 0.7 75 26.5
2009-09-29 12:15:35 51°33.255 2°56.724 195.3 0.7 74 26.2
2009-09-29 12:16:35 51°33.257 2°56.744 192.6 0.7 88 26.1
2009-09-29 12:17:35 51°33.259 2°56.763 195.6 0.8 79 26.6
2009-09-29 12:18:35 51°33.262 2°56.783 198.9 0.7 73 26.6
2009-09-29 12:19:35 51°33.266 2°56.803 199.7 0.8 68 26.4
2009-09-29 12:20:35 51°33.272 2°56.824 200.4 0.9 65 24.5
2009-09-29 12:21:35 51°33.278 2°56.846 199.4 1 67 23.3
2009-09-29 12:22:35 51°33.283 2°56.867 200.6 0.9 66 24.3
2009-09-29 12:23:35 51°33.288 2°56.889 202.6 0.9 69 24.7
2009-09-29 12:24:35 51°33.294 2°56.911 203 0.8 71 25.1
2009-09-29 12:25:35 51°33.3 2°56.936 201.3 1 66 25.3
2009-09-29 12:26:35 51°33.306 2°56.958 205 0.9 64 25.5
2009-09-29 12:27:35 51°33.312 2°56.979 206.2 0.9 57 25.5
2009-09-29 12:28:35 51°33.32 2°57.005 203.4 1.1 67 26.6
2009-09-29 12:29:35 51°33.327 2°57.029 204.1 1.1 69 25.9
2009-09-29 12:30:35 51°33.333 2°57.053 200.5 1.1 66 26.7
2009-09-29 12:31:35 51°33.341 2°57.077 199.7 1.1 61 26.4
2009-09-29 12:32:35 51°33.347 2°57.1 203.2 0.8 73 25.9
2009-09-29 12:33:35 51°33.348 2°57.118 211 0.4 141 26.2
2009-09-29 12:34:35 51°33.336 2°57.103 242 1.6 247 26.3
2009-09-29 12:35:35 51°33.349 2°57.037 298.4 3.3 313 26.6
2009-09-29 12:36:35 51°33.405 2°57.02 6.3 3.2 16 27.1
2009-09-29 12:37:35 51°33.445 2°57.065 51.8 2.8 55 26.2
2009-09-29 12:38:35 51°33.468 2°57.131 72.1 3 61 25
2009-09-29 12:39:35 51°33.491 2°57.204 64.9 3.1 59 24.1
2009-09-29 12:40:35 51°33.518 2°57.264 53.2 2.4 50 25.5
2009-09-29 12:41:35 51°33.54 2°57.305 41.8 1.7 45 24.7
2009-09-29 12:42:35 51°33.556 2°57.333 29.1 1.2 41 24.3
2009-09-29 12:43:35 51°33.568 2°57.356 24.6 1 52 24.3
2009-09-29 12:44:35 51°33.576 2°57.38 26.8 1 70 25.2
2009-09-29 12:45:35 51°33.588 2°57.406 34.3 2 44 26.3
2009-09-29 12:46:35 51°33.622 2°57.485 68.5 4.8 69 26.6
2009-09-29 12:47:35 51°33.601 2°57.611 145.3 5.1 141 25.7
2009-09-29 12:48:35 51°33.524 2°57.602 214.3 5.4 223 24.4
2009-09-29 12:49:35 51°33.469 2°57.449 247.1 7.3 247 20.5
2009-09-29 12:50:35 51°33.403 2°57.278 236 7.5 239 23.9
2009-09-29 12:51:35 51°33.339 2°57.103 242.7 7.7 243 26.1
2009-09-29 12:52:35 51°33.273 2°56.927 238.7 7.8 241 23.9
2009-09-29 12:53:35 51°33.211 2°56.747 241 7.7 243 23.9
2009-09-29 12:54:35 51°33.14 2°56.575 234.4 7.8 240 26.2
2009-09-29 12:55:35 51°33.117 2°56.382 263.9 6.8 265 24.9
2009-09-29 12:56:35 51°33.111 2°56.276 266.4 2.3 270 24.9
2009-09-29 12:57:35 51°33.116 2°56.243 263.4 0.8 289 25.5
2009-09-29 12:58:35 51°33.119 2°56.235 254.7 0.3 14 25.6
2009-09-29 12:59:35 51°33.121 2°56.246 247.5 0.6 90 25.8
2009-09-29 13:00:35 51°33.123 2°56.269 230.8 1 83 26.6
2009-09-29 13:01:35 51°33.126 2°56.293 215.1 0.9 76 26.3
2009-09-29 13:02:35 51°33.129 2°56.319 206.4 0.9 77 25.6
2009-09-29 13:03:35 51°33.133 2°56.346 201.2 1.1 78 24.3
2009-09-29 13:04:35 51°33.138 2°56.374 193.6 1 76 25.5
2009-09-29 13:05:35 51°33.143 2°56.401 197.5 1 68 26.8
2009-09-29 13:06:35 51°33.147 2°56.428 198.7 1 80 26.1
2009-09-29 13:07:35 51°33.152 2°56.455 202.2 1.1 73 26.5
2009-09-29 13:08:35 51°33.157 2°56.481 203.7 1.2 70 27
2009-09-29 13:09:35 51°33.161 2°56.507 204.5 1.1 84 26
2009-09-29 13:10:35 51°33.157 2°56.521 218.4 0.9 195 26.3
2009-09-29 13:11:35 51°33.148 2°56.464 274.4 3.4 286 26.1
2009-09-29 13:12:35 51°33.161 2°56.438 311.6 0.4 49 27.1
2009-09-29 13:13:35 51°33.174 2°56.447 338 1 36 26.9
2009-09-29 13:14:35 51°33.183 2°56.468 8.8 1 70 26.9
2009-09-29 13:15:35 51°33.189 2°56.493 31.6 0.9 79 26.3
2009-09-29 13:16:35 51°33.194 2°56.519 38.8 1.1 70 25.2
2009-09-29 13:17:35 51°33.199 2°56.542 40 0.9 72 25.8
2009-09-29 13:18:35 51°33.202 2°56.565 38.8 0.9 82 24.2
2009-09-29 13:19:35 51°33.204 2°56.588 40 0.9 82 23.9
2009-09-29 13:20:35 51°33.207 2°56.61 41.8 0.7 78 24.2
2009-09-29 13:21:35 51°33.213 2°56.637 43 1.4 58 25.1
2009-09-29 13:22:35 51°33.23 2°56.674 42.2 2 53 25.5
2009-09-29 13:23:35 51°33.254 2°56.714 29.7 2 44 25.8
2009-09-29 13:24:35 51°33.276 2°56.747 21.7 1.3 39 25.3
2009-09-29 13:25:35 51°33.29 2°56.771 16.8 1.1 44 23
2009-09-29 13:26:35 51°33.302 2°56.793 14.5 1 58 23.4
2009-09-29 13:27:35 51°33.309 2°56.816 15.7 0.7 58 24.4
2009-09-29 13:28:35 51°33.312 2°56.839 22.1 0.7 80 25.1
2009-09-29 13:29:35 51°33.313 2°56.86 32.1 0.8 88 25.2
2009-09-29 13:30:35 51°33.313 2°56.879 42 0.7 78 24.7
2009-09-29 13:31:35 51°33.315 2°56.899 46.5 0.9 94 25
2009-09-29 13:32:35 51°33.316 2°56.919 46.5 0.9 84 26.1
2009-09-29 13:33:35 51°33.318 2°56.937 44.2 0.8 92 25.9
2009-09-29 13:34:35 51°33.319 2°56.956 44.3 0.6 87 25.6
2009-09-29 13:35:35 51°33.319 2°56.974 43.6 0.7 90 25.7
2009-09-29 13:36:35 51°33.321 2°56.993 42.2 0.8 69 25.5
2009-09-29 13:37:35 51°33.323 2°57.012 40.9 0.6 84 25.2
2009-09-29 13:38:35 51°33.324 2°57.029 40.8 0.6 82 25.5
2009-09-29 13:39:35 51°33.324 2°57.045 42.2 0.5 99 25.7
2009-09-29 13:40:35 51°33.324 2°57.06 44.5 0.6 88 25.9
2009-09-29 13:41:35 51°33.324 2°57.077 45.6 0.4 78 25.5
2009-09-29 13:42:35 51°33.324 2°57.093 49.7 0.5 87 25.4
2009-09-29 13:43:35 51°33.324 2°57.108 46.9 0.6 90 25.8
2009-09-29 13:44:35 51°33.323 2°57.122 45.1 0.5 93 24.9
2009-09-29 13:45:35 51°33.322 2°57.137 44.6 0.5 93 25.1
2009-09-29 13:46:35 51°33.322 2°57.151 44.4 0.4 90 25.1
2009-09-29 13:47:35 51°33.321 2°57.165 42.9 0.5 87 24.6
2009-09-29 13:48:35 51°33.321 2°57.181 42 0.7 90 25
2009-09-29 13:49:35 51°33.329 2°57.208 46.1 2.2 53 24.1
2009-09-29 13:50:35 51°33.353 2°57.297 88.5 4.6 89 23.5
2009-09-29 13:51:35 51°33.302 2°57.394 161.9 5.7 166 21.8
2009-09-29 13:52:35 51°33.221 2°57.329 237.7 6 243 23.3
2009-09-29 13:53:35 51°33.213 2°57.166 267.3 6.6 264 24.1
2009-09-29 13:54:35 51°33.211 2°56.983 269.5 6.9 269 22.1
2009-09-29 13:55:35 51°33.187 2°56.799 253.9 7.2 256 23.9
2009-09-29 13:56:35 51°33.162 2°56.644 251.2 4.6 251 25.5
2009-09-29 13:57:35 51°33.136 2°56.559 241 2.7 241 25.3
2009-09-29 13:58:35 51°33.118 2°56.505 249.8 2.1 240 26.2
2009-09-29 13:59:35 51°33.108 2°56.465 256.2 1.1 251 25.6
2009-09-29 14:00:35 51°33.103 2°56.448 252.6 0.6 261 25.4
2009-09-29 14:01:35 51°33.099 2°56.443 248.6 -999 196 25.9
2009-09-29 14:02:35 51°33.096 2°56.448 241.9 0.3 113 25.6
2009-09-29 14:03:35 51°33.093 2°56.461 226.7 0.5 118 25.9
2009-09-29 14:04:35 51°33.088 2°56.473 210.7 0.5 121 25.7
2009-09-29 14:05:35 51°33.082 2°56.484 197.5 0.6 151 25.6
2009-09-29 14:06:35 51°33.074 2°56.492 196.3 0.6 137 25.3
2009-09-29 14:07:35 51°33.066 2°56.501 200.1 0.8 160 25.2
2009-09-29 14:08:35 51°33.046 2°56.508 176.5 1.6 160 24.7
2009-09-29 14:09:35 51°33.019 2°56.537 140.2 2.3 130 24.2
2009-09-29 14:10:35 51°33.009 2°56.6 80.6 2.6 72 22.5
2009-09-29 14:11:35 51°33.034 2°56.647 28.9 1.7 32 23.9
2009-09-29 14:12:35 51°33.055 2°56.663 3.7 1.1 20 24.8
2009-09-29 14:13:35 51°33.072 2°56.669 356.5 0.8 17 23.4
2009-09-29 14:14:35 51°33.085 2°56.679 355.1 0.9 27 24.3
2009-09-29 14:15:35 51°33.099 2°56.688 355.5 0.9 26 25
2009-09-29 14:16:35 51°33.116 2°56.696 356.3 1.2 8 25.7
2009-09-29 14:17:35 51°33.136 2°56.7 348.2 1.3 2 25.1
2009-09-29 14:18:35 51°33.159 2°56.7 349.7 1.5 3 23.4
2009-09-29 14:19:35 51°33.186 2°56.703 350.7 2.2 -999 25.4
2009-09-29 14:20:35 51°33.23 2°56.677 321.2 4.2 321 24.8
2009-09-29 14:21:35 51°33.307 2°56.542 308.6 8.5 304 26.1
2009-09-29 14:22:35 51°33.375 2°56.329 291 9.3 288 24.9
2009-09-29 14:23:35 51°33.406 2°56.068 277.3 10.4 276 25.4
2009-09-29 14:24:35 51°33.424 2°55.782 275.7 10.9 274 23.7
2009-09-29 14:25:35 51°33.44 2°55.488 275.6 10.9 273 24.1
2009-09-29 14:26:35 51°33.435 2°55.196 265.2 11 266 25.1
2009-09-29 14:27:35 51°33.404 2°54.909 254.3 10.9 252 26.4
2009-09-29 14:28:35 51°33.334 2°54.645 234.5 10.7 231 24.7
2009-09-29 14:29:35 51°33.177 2°54.547 181.5 11 182 24.3
2009-09-29 14:30:35 51°32.995 2°54.567 173.6 11.5 174 24
2009-09-29 14:31:35 51°32.811 2°54.572 181.8 11.1 184 19.3
2009-09-29 14:32:35 51°32.627 2°54.548 184.9 11.1 187 23.4
2009-09-29 14:33:35 51°32.445 2°54.516 183.7 11.4 183 20.3
2009-09-29 14:34:35 51°32.261 2°54.492 182.8 11.1 187 21.5
2009-09-29 14:35:35 51°32.077 2°54.469 186.3 11.1 182 21.7
2009-09-29 14:36:35 51°31.891 2°54.448 184.6 11.2 184 21.2
2009-09-29 14:37:35 51°31.705 2°54.428 183.2 11.3 184 18
2009-09-29 14:38:35 51°31.519 2°54.407 184.2 11.3 186 19.4
2009-09-29 14:39:35 51°31.332 2°54.39 184.4 11.5 181 18.7
2009-09-29 14:40:35 51°31.146 2°54.368 184.7 11.4 186 16
2009-09-29 14:41:35 51°30.96 2°54.347 184.2 11.1 184 17.5
2009-09-29 14:42:35 51°30.774 2°54.324 182.8 11.4 185 21.2
2009-09-29 14:43:35 51°30.588 2°54.297 184.5 11.3 189 31.1
2009-09-29 14:44:35 51°30.401 2°54.275 183.5 11.5 186 33.9
2009-09-29 14:45:35 51°30.212 2°54.25 184.5 11.3 183 32.1
2009-09-29 14:46:35 51°30.023 2°54.224 184.6 11.3 183 31.3
2009-09-29 14:47:35 51°29.833 2°54.199 183.7 11.6 185 31.2
2009-09-29 14:48:35 51°29.643 2°54.173 184.1 11.6 183 29.6
2009-09-29 14:49:35 51°29.453 2°54.145 184.2 11.7 189 28
2009-09-29 14:50:35 51°29.267 2°54.115 187 11.2 186 27.2
2009-09-29 14:51:35 51°29.08 2°54.083 184.8 11.3 187 26
2009-09-29 14:52:50 51°28.845 2°54.043 185 11.5 184 24.8
2009-09-29 14:53:50 51°28.658 2°54.01 184.3 11.2 192 23.9
2009-09-29 14:54:50 51°28.468 2°53.979 183.4 11.4 185 22.4
2009-09-29 14:55:50 51°28.28 2°53.95 184.7 11.2 186 21.2
2009-09-29 14:56:50 51°28.091 2°53.923 183.3 11.5 185 20.4
2009-09-29 14:57:50 51°27.902 2°53.898 183.1 11.5 188 20.4
2009-09-29 14:58:50 51°27.713 2°53.867 183.7 11.4 185 19.9
2009-09-29 14:59:50 51°27.523 2°53.834 183.5 11.4 183 22.2
2009-09-29 15:00:50 51°27.333 2°53.799 184.4 11.6 191 23.2
2009-09-29 15:01:50 51°27.142 2°53.762 184 11.7 187 22.7
2009-09-29 15:02:50 51°26.95 2°53.728 185.4 11.3 185 25.5
2009-09-29 15:03:50 51°26.759 2°53.697 184.2 11.3 180 29.2
2009-09-29 15:04:50 51°26.57 2°53.658 184.5 11.7 184 31.9
2009-09-29 15:05:50 51°26.379 2°53.622 185.1 11.6 186 31.8
2009-09-29 15:06:50 51°26.186 2°53.59 183.7 11.6 184 31.1
2009-09-29 15:07:50 51°25.998 2°53.557 185.4 11.6 189 29.3
2009-09-29 15:08:50 51°25.81 2°53.53 183.5 11.6 186 26.7
2009-09-29 15:09:50 51°25.622 2°53.5 183.9 11.4 184 24.6
2009-09-29 15:10:50 51°25.43 2°53.469 183.9 11.3 185 22.4
2009-09-29 15:11:50 51°25.241 2°53.434 184.8 11.5 186 21.6
2009-09-29 15:12:50 51°25.052 2°53.399 184 11.6 189 20.2
2009-09-29 15:13:50 51°24.863 2°53.363 183.8 11.7 189 19.2
2009-09-29 15:14:50 51°24.671 2°53.325 184.9 11.7 192 18.4
2009-09-29 15:15:50 51°24.484 2°53.288 186.7 11.1 192 18.4
2009-09-29 15:16:50 51°24.294 2°53.254 184.4 11.7 185 17
2009-09-29 15:17:50 51°24.102 2°53.221 182.6 11.6 189 18
2009-09-29 15:18:50 51°23.909 2°53.184 184.4 11.7 189 20
2009-09-29 15:19:50 51°23.715 2°53.148 183.9 11.8 185 20.6
2009-09-29 15:20:50 51°23.52 2°53.111 182.3 11.8 187 20.5
2009-09-29 15:21:50 51°23.327 2°53.072 183.5 11.8 187 19.9
2009-09-29 15:22:50 51°23.134 2°53.033 183 11.8 187 21.2
2009-09-29 15:23:50 51°22.941 2°52.993 183.6 11.7 189 22
2009-09-29 15:24:50 51°22.748 2°52.958 183.5 11.6 186 22.1
2009-09-29 15:25:50 51°22.555 2°52.917 183.7 11.6 184 21.9
2009-09-29 15:26:50 51°22.363 2°52.881 183.7 11.6 185 22.9
2009-09-29 15:27:50 51°22.17 2°52.841 184.3 11.7 192 23.2
2009-09-29 15:28:50 51°21.979 2°52.802 183.1 11.4 189 22
2009-09-29 15:29:50 51°21.787 2°52.765 182.8 11.6 183 20
2009-09-29 15:30:50 51°21.595 2°52.724 184 11.7 187 18.1
2009-09-29 15:31:50 51°21.401 2°52.686 183.7 11.8 187 16.7
2009-09-29 15:32:50 51°21.208 2°52.647 183.1 11.8 189 15
2009-09-29 15:33:50 51°21.016 2°52.61 184.7 11.8 186 14.5
2009-09-29 15:34:50 51°20.823 2°52.574 183.5 11.9 186 14.7
2009-09-29 15:35:50 51°20.63 2°52.534 184.3 11.7 190 14.3
2009-09-29 15:36:50 51°20.436 2°52.497 184.6 11.7 191 15.2
2009-09-29 15:37:50 51°20.242 2°52.462 184.5 11.5 185 15.3
2009-09-29 15:38:50 51°20.047 2°52.424 183.6 11.9 187 15.6
2009-09-29 15:39:50 51°19.852 2°52.387 183.5 11.8 188 15.4
2009-09-29 15:40:50 51°19.658 2°52.35 185.7 11.5 185 15.2
2009-09-29 15:41:50 51°19.463 2°52.314 183.5 11.9 186 14.9
2009-09-29 15:42:50 51°19.269 2°52.276 185.3 11.7 184 14.3
2009-09-29 15:43:50 51°19.074 2°52.237 183.8 12.1 190 13.7
2009-09-29 15:44:50 51°18.881 2°52.196 183.7 11.6 188 12.7
2009-09-29 15:45:50 51°18.688 2°52.162 183.5 11.4 181 11.9
2009-09-29 15:46:50 51°18.495 2°52.141 179.6 11.8 182 11.1
2009-09-29 15:47:50 51°18.3 2°52.135 177.9 11.6 182 11
2009-09-29 15:48:50 51°18.104 2°52.13 178 11.8 183 10.6
2009-09-29 15:49:50 51°17.908 2°52.12 179.4 12 185 10.8
2009-09-29 15:50:50 51°17.711 2°52.108 180.8 11.8 183 10.6
2009-09-29 15:51:50 51°17.516 2°52.109 172.8 11.5 174 10.6
2009-09-29 15:52:50 51°17.323 2°52.161 162.9 11.4 167 10.9
2009-09-29 15:53:50 51°17.138 2°52.253 156.2 11.3 162 10.6
2009-09-29 15:55:01 51°16.926 2°52.383 154.7 11.6 157 9.1
2009-09-29 15:56:01 51°16.744 2°52.487 156.3 11.7 158 9.7
2009-09-29 15:57:01 51°16.563 2°52.594 155.4 11.6 159 11
2009-09-29 15:58:01 51°16.382 2°52.697 155.7 11.7 159 11.5
2009-09-29 15:59:01 51°16.201 2°52.795 156.2 11.7 162 11.6
2009-09-29 16:00:01 51°16.018 2°52.889 157.1 11.7 162 11.6
2009-09-29 16:01:01 51°15.837 2°52.986 156.1 11.5 160 11.3
2009-09-29 16:02:01 51°15.663 2°53.103 150.1 11.6 152 11.1
2009-09-29 16:03:01 51°15.512 2°53.154 172.1 8 176 10.6
2009-09-29 16:04:01 51°15.373 2°53.179 164.8 8.5 169 10.4
2009-09-29 16:05:01 51°15.237 2°53.23 160.4 8.4 168 9.9
2009-09-29 16:06:01 51°15.13 2°53.285 153.1 5.9 160 9.7
2009-09-29 16:07:01 51°15.041 2°53.341 145.9 6.3 151 9.5
2009-09-29 16:08:01 51°14.924 2°53.458 140.9 9 146 9.3
2009-09-29 16:09:01 51°14.805 2°53.63 130.2 10 135 9.3
2009-09-29 16:10:01 51°14.702 2°53.832 121.2 9.7 127 9.6
2009-09-29 16:11:01 51°14.611 2°54.049 118.2 9.8 123 10.3
2009-09-29 16:12:01 51°14.536 2°54.276 107.5 9.5 112 10
2009-09-29 16:13:01 51°14.488 2°54.521 104.1 9.6 106 9.8
2009-09-29 16:14:01 51°14.432 2°54.761 109.2 9.7 109 9.9
2009-09-29 16:15:01 51°14.365 2°54.997 114.8 10.1 119 8.8
2009-09-29 16:16:01 51°14.282 2°55.212 128 8 130 10.5
2009-09-29 16:17:01 51°14.193 2°55.347 140.9 7.2 143 10.8
2009-09-29 16:18:01 51°14.091 2°55.434 154.7 6.8 155 10.3
2009-09-29 16:19:01 51°13.988 2°55.509 154.7 6.9 154 10.9
2009-09-29 16:20:01 51°13.896 2°55.58 155.1 5.5 155 10.6
2009-09-29 16:21:05 51°13.812 2°55.647 149.6 5.2 150 11.1
2009-09-29 16:22:05 51°13.751 2°55.727 133.1 4.4 135 -999
2009-09-29 16:23:05 51°13.706 2°55.813 125.7 4 125 -999
2009-09-29 16:24:05 51°13.675 2°55.901 110.1 3.4 112 -999
2009-09-29 16:25:05 51°13.663 2°55.954 119.5 0.9 116 -999